createdAt,value
2022-08-03T00:02:33.769Z,73.06
2022-08-03T00:07:38.872Z,72.82
2022-08-03T00:12:41.883Z,72.76
2022-08-03T00:17:53.080Z,72.55
2022-08-03T00:23:00.260Z,72.98
2022-08-03T00:28:05.609Z,72.44
2022-08-03T00:33:10.537Z,72.19
2022-08-03T00:38:13.944Z,71.99
2022-08-03T00:43:17.103Z,71.67
2022-08-03T00:48:33.230Z,71.76
2022-08-03T00:53:37.473Z,71.59
2022-08-03T00:58:40.555Z,71.51
2022-08-03T01:03:43.391Z,71.48
2022-08-03T01:09:38.016Z,72.02
2022-08-03T01:15:09.401Z,72.36
2022-08-03T01:20:14.696Z,72.32
2022-08-03T01:26:06.140Z,71.87
2022-08-03T01:31:12.172Z,72.52
2022-08-03T01:36:22.468Z,72.98
2022-08-03T01:41:32.239Z,72.43
2022-08-03T01:46:37.306Z,72.50
2022-08-03T01:52:03.583Z,71.99
2022-08-03T01:57:08.702Z,72.24
2022-08-03T02:02:34.046Z,72.22
2022-08-03T02:07:41.007Z,72.14
2022-08-03T02:12:51.063Z,72.14
2022-08-03T02:17:56.879Z,72.09
2022-08-03T02:23:00.486Z,71.90
2022-08-03T02:28:11.350Z,71.53
2022-08-03T02:33:31.941Z,72.11
2022-08-03T02:38:40.319Z,72.26
2022-08-03T02:44:06.033Z,72.55
2022-08-03T02:49:40.953Z,72.43
2022-08-03T02:54:37.124Z,72.60
2022-08-03T02:59:42.269Z,72.63
2022-08-03T03:05:51.518Z,72.73
2022-08-03T03:10:10.830Z,72.80
2022-08-03T03:15:17.082Z,72.85
2022-08-03T03:20:26.717Z,72.81
2022-08-03T03:25:34.697Z,72.82
2022-08-03T03:30:38.306Z,72.92
2022-08-03T03:35:44.804Z,72.81
2022-08-03T03:40:48.998Z,73.11
2022-08-03T03:45:53.909Z,73.54
2022-08-03T03:50:58.105Z,73.84
2022-08-03T03:56:03.098Z,73.92
2022-08-03T04:01:06.830Z,73.93
2022-08-03T04:06:51.192Z,74.03
2022-08-03T04:12:01.249Z,74.52
2022-08-03T04:17:09.551Z,75.01
2022-08-03T04:22:19.068Z,75.10
2022-08-03T04:27:30.970Z,74.85
2022-08-03T04:32:36.228Z,74.91
2022-08-03T04:37:49.005Z,74.76
2022-08-03T04:42:55.920Z,74.62
2022-08-03T04:48:00.136Z,74.76
2022-08-03T04:53:07.341Z,74.51
2022-08-03T04:58:10.642Z,74.27
2022-08-03T05:03:20.327Z,74.24
2022-08-03T05:08:28.042Z,74.32
2022-08-03T05:13:31.572Z,74.45
2022-08-03T05:18:36.096Z,74.73
2022-08-03T05:23:39.169Z,74.92
2022-08-03T05:28:51.038Z,75.68
2022-08-03T05:33:57.507Z,75.92
2022-08-03T05:39:02.730Z,76.35
2022-08-03T05:44:09.432Z,75.96
2022-08-03T05:49:12.469Z,75.35
2022-08-03T05:54:15.632Z,75.42
2022-08-03T05:59:37.566Z,75.77
2022-08-03T06:04:41.678Z,76.08
2022-08-03T06:10:34.910Z,76.04
2022-08-03T06:15:11.177Z,75.97
2022-08-03T06:20:17.857Z,75.71
2022-08-03T06:25:23.627Z,75.19
2022-08-03T06:30:26.957Z,74.91
2022-08-03T06:35:32.651Z,74.53
2022-08-03T06:40:41.290Z,74.45
2022-08-03T06:45:44.381Z,74.81
2022-08-03T06:50:50.757Z,75.02
2022-08-03T06:55:54.931Z,74.13
2022-08-03T07:00:58.288Z,73.60
2022-08-03T07:06:04.309Z,73.40
2022-08-03T07:11:08.212Z,72.03
2022-08-03T07:16:12.257Z,71.25
2022-08-03T07:21:16.853Z,71.64
2022-08-03T07:26:19.949Z,70.90
2022-08-03T07:31:22.989Z,69.55
2022-08-03T07:36:27.125Z,68.43
2022-08-03T07:41:30.320Z,68.32
2022-08-03T07:46:33.643Z,67.13
2022-08-03T07:51:37.063Z,65.78
2022-08-03T07:56:40.114Z,64.14
2022-08-03T08:01:43.123Z,64.12
2022-08-03T08:06:46.950Z,63.52
2022-08-03T08:11:51.572Z,63.90
2022-08-03T08:16:55.357Z,64.08
2022-08-03T08:22:02.745Z,64.64
2022-08-03T08:27:06.275Z,63.46
2022-08-03T08:32:11.427Z,62.78
2022-08-03T08:37:17.343Z,62.03
2022-08-03T08:42:20.358Z,60.67
2022-08-03T08:47:30.617Z,58.77
2022-08-03T08:52:54.553Z,57.30
2022-08-03T08:58:05.355Z,57.25
2022-08-03T09:03:09.377Z,56.75
2022-08-03T09:08:12.525Z,56.65
2022-08-03T09:13:16.111Z,58.51
2022-08-03T09:18:32.798Z,57.55
2022-08-03T09:24:02.891Z,58.22
2022-08-03T09:29:14.358Z,57.52
2022-08-03T09:34:18.701Z,57.65
2022-08-03T09:39:41.508Z,57.01
2022-08-03T09:44:51.046Z,54.82
2022-08-03T09:50:09.372Z,55.43
2022-08-03T09:56:30.412Z,54.06
2022-08-03T10:00:59.707Z,54.41
2022-08-03T10:06:20.345Z,55.23
2022-08-03T10:11:36.225Z,53.85
2022-08-03T10:16:45.099Z,54.43
2022-08-03T10:21:58.123Z,54.61
2022-08-03T10:27:07.534Z,53.32
2022-08-03T10:32:32.919Z,54.60
2022-08-03T10:37:56.386Z,56.08
2022-08-03T10:43:13.248Z,57.01
2022-08-03T10:48:17.926Z,56.85
2022-08-03T10:53:54.916Z,58.13
2022-08-03T10:58:59.326Z,58.25
2022-08-03T11:04:10.968Z,57.03
2022-08-03T11:09:18.399Z,57.64
2022-08-03T11:14:22.704Z,56.26
2022-08-03T11:19:57.761Z,56.19
2022-08-03T11:25:04.899Z,55.66
2022-08-03T11:30:19.803Z,55.57
2022-08-03T11:35:32.339Z,54.66
2022-08-03T11:40:48.645Z,53.29
2022-08-03T11:46:29.616Z,53.83
2022-08-03T11:51:33.067Z,53.54
2022-08-03T11:56:46.650Z,54.30
2022-08-03T12:01:51.342Z,53.34
2022-08-03T12:07:02.060Z,52.21
2022-08-03T12:12:05.432Z,51.00
2022-08-03T12:17:11.592Z,51.13
2022-08-03T12:22:16.892Z,50.09
2022-08-03T12:27:29.910Z,50.77
2022-08-03T12:32:33.388Z,50.61
2022-08-03T12:37:39.031Z,49.67
2022-08-03T12:42:42.442Z,51.42
2022-08-03T12:48:02.935Z,50.09
2022-08-03T12:53:10.765Z,49.86
2022-08-03T12:58:31.348Z,50.84
2022-08-03T13:03:49.957Z,50.29
2022-08-03T13:09:11.335Z,49.88
2022-08-03T13:14:16.811Z,48.62
2022-08-03T13:19:23.035Z,47.80
2022-08-03T13:24:26.275Z,47.80
2022-08-03T13:29:29.292Z,47.00
2022-08-03T13:34:35.960Z,47.62
2022-08-03T13:39:57.296Z,47.76
2022-08-03T13:45:06.550Z,48.13
2022-08-03T13:50:09.711Z,48.05
2022-08-03T13:55:12.781Z,47.53
2022-08-03T14:00:27.093Z,46.65
2022-08-03T14:05:32.664Z,45.09
2022-08-03T14:10:42.698Z,45.13
2022-08-03T14:15:51.227Z,44.18
2022-08-03T14:20:56.829Z,46.27
2022-08-03T14:26:01.386Z,46.75
2022-08-03T14:31:08.563Z,45.34
2022-08-03T14:36:28.158Z,46.39
2022-08-03T14:41:31.193Z,46.22
2022-08-03T14:46:37.533Z,46.83
2022-08-03T14:51:40.554Z,46.65
2022-08-03T14:56:56.479Z,45.35
2022-08-03T15:02:04.799Z,44.46
2022-08-03T15:07:09.676Z,44.16
2022-08-03T15:12:12.939Z,44.23
2022-08-03T15:17:15.945Z,44.26
2022-08-03T15:22:24.904Z,43.77
2022-08-03T15:27:37.501Z,43.33
2022-08-03T15:33:00.472Z,44.29
2022-08-03T15:38:09.034Z,43.98
2022-08-03T15:43:12.746Z,44.64
2022-08-03T15:48:20.326Z,45.36
2022-08-03T15:53:29.621Z,45.55
2022-08-03T15:59:03.615Z,45.01
2022-08-03T16:03:55.702Z,45.90
2022-08-03T16:08:58.720Z,45.74
2022-08-03T16:14:13.072Z,45.54
2022-08-03T16:19:28.763Z,47.23
2022-08-03T16:24:32.150Z,48.04
2022-08-03T16:29:35.164Z,49.29
2022-08-03T16:34:40.916Z,49.26
2022-08-03T16:39:44.579Z,49.97
2022-08-03T16:44:47.669Z,49.56
2022-08-03T16:49:54.351Z,49.98
2022-08-03T16:54:59.736Z,51.73
2022-08-03T17:00:05.371Z,52.33
2022-08-03T17:05:09.608Z,53.42
2022-08-03T17:10:13.087Z,54.24
2022-08-03T17:15:16.224Z,54.54
2022-08-03T17:20:20.415Z,54.82
2022-08-03T17:26:01.736Z,54.90
2022-08-03T17:31:23.050Z,55.21
2022-08-03T17:37:05.465Z,55.35
2022-08-03T17:42:03.989Z,55.85
2022-08-03T17:47:07.037Z,56.32
2022-08-03T17:52:30.956Z,56.58
2022-08-03T17:58:02.330Z,56.90
2022-08-03T18:03:18.622Z,56.89
2022-08-03T18:08:31.438Z,57.44
2022-08-03T18:14:17.032Z,57.95
2022-08-03T18:19:21.513Z,58.50
2022-08-03T18:24:44.919Z,59.52
2022-08-03T18:29:49.631Z,60.13
2022-08-03T18:35:03.086Z,60.41
2022-08-03T18:40:07.796Z,60.60
2022-08-03T18:45:14.736Z,60.65
2022-08-03T18:56:26.893Z,60.82
2022-08-03T19:02:00.640Z,61.10
2022-08-03T19:07:08.201Z,60.64
2022-08-03T19:12:30.752Z,60.93
2022-08-03T19:17:53.314Z,61.71
2022-08-03T19:22:59.578Z,62.20
2022-08-03T19:28:06.182Z,62.65
2022-08-03T19:33:15.697Z,63.00
2022-08-03T19:38:28.300Z,63.14
2022-08-03T19:49:16.525Z,63.85
2022-08-03T19:54:29.382Z,64.02
2022-08-03T19:59:49.564Z,64.26
2022-08-03T20:04:53.876Z,64.63
2022-08-03T20:09:57.082Z,64.89
2022-08-03T20:15:00.830Z,65.04
2022-08-03T20:20:05.432Z,65.00
2022-08-03T20:25:12.966Z,65.14
2022-08-03T20:30:26.400Z,65.39
2022-08-03T20:35:30.626Z,65.47
2022-08-03T20:40:34.389Z,65.75
2022-08-03T20:46:00.052Z,66.05
2022-08-03T20:51:05.866Z,66.06
2022-08-03T20:56:23.067Z,65.94
2022-08-03T21:01:27.543Z,65.53
2022-08-03T21:06:45.677Z,64.91
2022-08-03T21:12:01.032Z,65.30
2022-08-03T21:13:10.281Z,63.63
2022-08-03T21:13:11.099Z,60.58
2022-08-03T21:17:14.033Z,65.55
2022-08-03T21:22:23.287Z,65.20
2022-08-03T21:27:30.995Z,64.96
2022-08-03T21:32:34.432Z,65.00
2022-08-03T21:37:40.198Z,64.41
2022-08-03T21:42:45.711Z,64.40
2022-08-03T21:47:48.892Z,64.76
2022-08-03T21:52:52.333Z,64.90
2022-08-03T21:58:00.370Z,65.06
2022-08-03T22:03:17.151Z,65.10
2022-08-03T22:08:21.062Z,64.91
2022-08-03T22:13:43.970Z,64.63
2022-08-03T22:18:47.034Z,64.33
2022-08-03T22:23:54.680Z,64.12
2022-08-03T22:28:59.574Z,64.66
2022-08-03T22:34:02.624Z,65.05
2022-08-03T22:39:06.295Z,65.36
2022-08-03T22:44:09.757Z,65.40
2022-08-03T22:49:13.947Z,65.63
2022-08-03T22:54:17.418Z,65.70
2022-08-03T22:59:40.520Z,65.82
2022-08-03T23:04:49.228Z,65.94
2022-08-03T23:09:52.687Z,66.22
2022-08-03T23:15:03.361Z,66.36
2022-08-03T23:20:09.588Z,66.44
2022-08-03T23:25:12.612Z,66.42
2022-08-03T23:30:16.039Z,66.33
2022-08-03T23:36:20.205Z,66.42
2022-08-03T23:41:09.489Z,66.36
2022-08-03T23:46:13.747Z,66.46
2022-08-03T23:51:40.330Z,66.62
2022-08-03T23:57:00.320Z,66.69
